sensor_id;sensor_type;location;lat;lon;timestamp;P1;durP1;ratioP1;P2;durP2;ratioP2
26080;SDS011;13991;51.174;4.438;2023-08-21T00:01:35;12.67;;;1.30;;
26080;SDS011;13991;51.174;4.438;2023-08-21T00:04:01;12.03;;;1.50;;
26080;SDS011;13991;51.174;4.438;2023-08-21T00:06:28;13.07;;;1.23;;
26080;SDS011;13991;51.174;4.438;2023-08-21T00:08:57;6.70;;;1.33;;
26080;SDS011;13991;51.174;4.438;2023-08-21T00:11:22;12.07;;;1.40;;
26080;SDS011;13991;51.174;4.438;2023-08-21T00:13:48;7.27;;;1.50;;
26080;SDS011;13991;51.174;4.438;2023-08-21T00:16:17;9.73;;;1.23;;
26080;SDS011;13991;51.174;4.438;2023-08-21T00:18:45;10.00;;;1.50;;
26080;SDS011;13991;51.174;4.438;2023-08-21T00:21:16;10.20;;;1.30;;
26080;SDS011;13991;51.174;4.438;2023-08-21T00:23:49;8.67;;;1.07;;
26080;SDS011;13991;51.174;4.438;2023-08-21T00:26:20;12.47;;;1.47;;
26080;SDS011;13991;51.174;4.438;2023-08-21T00:28:52;8.10;;;1.13;;
26080;SDS011;13991;51.174;4.438;2023-08-21T00:31:22;10.13;;;1.37;;
26080;SDS011;13991;51.174;4.438;2023-08-21T00:33:48;15.20;;;0.90;;
26080;SDS011;13991;51.174;4.438;2023-08-21T00:36:16;14.93;;;2.03;;
26080;SDS011;13991;51.174;4.438;2023-08-21T00:38:45;14.33;;;1.70;;
26080;SDS011;13991;51.174;4.438;2023-08-21T00:44:45;13.83;;;1.83;;
26080;SDS011;13991;51.174;4.438;2023-08-21T00:47:11;9.00;;;1.63;;
26080;SDS011;13991;51.174;4.438;2023-08-21T00:49:37;5.63;;;0.90;;
26080;SDS011;13991;51.174;4.438;2023-08-21T00:52:04;6.90;;;1.10;;
26080;SDS011;13991;51.174;4.438;2023-08-21T00:54:34;13.93;;;1.57;;
26080;SDS011;13991;51.174;4.438;2023-08-21T00:57:41;14.37;;;1.60;;
26080;SDS011;13991;51.174;4.438;2023-08-21T01:03:23;9.63;;;1.10;;
26080;SDS011;13991;51.174;4.438;2023-08-21T01:05:49;7.37;;;0.80;;
26080;SDS011;13991;51.174;4.438;2023-08-21T01:11:21;11.83;;;1.13;;
26080;SDS011;13991;51.174;4.438;2023-08-21T01:14:47;16.17;;;1.50;;
26080;SDS011;13991;51.174;4.438;2023-08-21T01:21:15;7.63;;;1.33;;
26080;SDS011;13991;51.174;4.438;2023-08-21T01:23:42;7.63;;;1.40;;
26080;SDS011;13991;51.174;4.438;2023-08-21T01:26:08;11.57;;;1.40;;
26080;SDS011;13991;51.174;4.438;2023-08-21T01:28:34;8.03;;;1.07;;
26080;SDS011;13991;51.174;4.438;2023-08-21T01:34:29;8.47;;;1.00;;
26080;SDS011;13991;51.174;4.438;2023-08-21T01:36:58;9.67;;;1.10;;
26080;SDS011;13991;51.174;4.438;2023-08-21T01:39:25;14.50;;;1.33;;
26080;SDS011;13991;51.174;4.438;2023-08-21T01:42:00;5.93;;;1.00;;
26080;SDS011;13991;51.174;4.438;2023-08-21T01:44:26;15.50;;;1.30;;
26080;SDS011;13991;51.174;4.438;2023-08-21T01:46:53;17.13;;;1.77;;
26080;SDS011;13991;51.174;4.438;2023-08-21T01:49:19;7.83;;;1.20;;
26080;SDS011;13991;51.174;4.438;2023-08-21T01:51:45;8.77;;;0.90;;
26080;SDS011;13991;51.174;4.438;2023-08-21T01:54:11;8.63;;;1.30;;
26080;SDS011;13991;51.174;4.438;2023-08-21T01:56:37;14.27;;;1.30;;
26080;SDS011;13991;51.174;4.438;2023-08-21T01:59:03;13.83;;;1.57;;
26080;SDS011;13991;51.174;4.438;2023-08-21T02:01:30;10.67;;;1.37;;
26080;SDS011;13991;51.174;4.438;2023-08-21T02:03:55;10.73;;;1.30;;
26080;SDS011;13991;51.174;4.438;2023-08-21T02:06:21;16.73;;;1.60;;
26080;SDS011;13991;51.174;4.438;2023-08-21T02:12:10;10.13;;;1.43;;
26080;SDS011;13991;51.174;4.438;2023-08-21T02:18:00;10.73;;;1.20;;
26080;SDS011;13991;51.174;4.438;2023-08-21T02:20:27;13.60;;;1.40;;
26080;SDS011;13991;51.174;4.438;2023-08-21T02:22:53;16.67;;;1.37;;
26080;SDS011;13991;51.174;4.438;2023-08-21T02:25:19;8.80;;;0.90;;
26080;SDS011;13991;51.174;4.438;2023-08-21T02:27:44;7.07;;;1.00;;
26080;SDS011;13991;51.174;4.438;2023-08-21T02:30:11;11.17;;;1.80;;
26080;SDS011;13991;51.174;4.438;2023-08-21T02:32:38;22.90;;;2.00;;
26080;SDS011;13991;51.174;4.438;2023-08-21T02:35:06;9.00;;;1.10;;
26080;SDS011;13991;51.174;4.438;2023-08-21T02:37:43;18.33;;;1.80;;
26080;SDS011;13991;51.174;4.438;2023-08-21T02:43:31;13.83;;;1.90;;
26080;SDS011;13991;51.174;4.438;2023-08-21T02:45:58;13.23;;;2.10;;
26080;SDS011;13991;51.174;4.438;2023-08-21T02:48:24;12.20;;;1.77;;
26080;SDS011;13991;51.174;4.438;2023-08-21T02:50:50;14.70;;;2.00;;
26080;SDS011;13991;51.174;4.438;2023-08-21T02:53:16;11.53;;;1.80;;
26080;SDS011;13991;51.174;4.438;2023-08-21T02:55:46;11.00;;;1.63;;
26080;SDS011;13991;51.174;4.438;2023-08-21T02:58:13;15.53;;;1.90;;
26080;SDS011;13991;51.174;4.438;2023-08-21T03:00:39;18.50;;;2.17;;
26080;SDS011;13991;51.174;4.438;2023-08-21T03:03:07;9.33;;;1.83;;
26080;SDS011;13991;51.174;4.438;2023-08-21T03:05:37;16.13;;;2.07;;
26080;SDS011;13991;51.174;4.438;2023-08-21T03:08:04;12.83;;;1.77;;
26080;SDS011;13991;51.174;4.438;2023-08-21T03:10:33;15.57;;;2.37;;
26080;SDS011;13991;51.174;4.438;2023-08-21T03:13:00;9.63;;;1.70;;
26080;SDS011;13991;51.174;4.438;2023-08-21T03:15:29;14.13;;;2.20;;
26080;SDS011;13991;51.174;4.438;2023-08-21T03:17:57;13.57;;;1.80;;
26080;SDS011;13991;51.174;4.438;2023-08-21T03:20:33;11.80;;;1.50;;
26080;SDS011;13991;51.174;4.438;2023-08-21T03:22:58;10.93;;;1.43;;
26080;SDS011;13991;51.174;4.438;2023-08-21T03:25:24;17.30;;;2.10;;
26080;SDS011;13991;51.174;4.438;2023-08-21T03:27:56;11.00;;;1.50;;
26080;SDS011;13991;51.174;4.438;2023-08-21T03:30:21;16.67;;;1.93;;
26080;SDS011;13991;51.174;4.438;2023-08-21T03:35:39;7.50;;;1.57;;
26080;SDS011;13991;51.174;4.438;2023-08-21T03:38:05;12.43;;;1.60;;
26080;SDS011;13991;51.174;4.438;2023-08-21T03:40:34;14.03;;;1.93;;
26080;SDS011;13991;51.174;4.438;2023-08-21T03:46:22;12.90;;;1.23;;
26080;SDS011;13991;51.174;4.438;2023-08-21T03:48:49;11.90;;;1.53;;
26080;SDS011;13991;51.174;4.438;2023-08-21T03:51:16;10.73;;;1.57;;
26080;SDS011;13991;51.174;4.438;2023-08-21T03:53:41;7.50;;;1.33;;
26080;SDS011;13991;51.174;4.438;2023-08-21T03:56:07;8.90;;;1.43;;
26080;SDS011;13991;51.174;4.438;2023-08-21T03:58:33;23.17;;;1.73;;
26080;SDS011;13991;51.174;4.438;2023-08-21T04:00:59;11.13;;;1.40;;
26080;SDS011;13991;51.174;4.438;2023-08-21T04:03:24;13.23;;;1.40;;
26080;SDS011;13991;51.174;4.438;2023-08-21T04:05:52;15.57;;;1.40;;
26080;SDS011;13991;51.174;4.438;2023-08-21T04:08:22;13.67;;;1.67;;
26080;SDS011;13991;51.174;4.438;2023-08-21T04:10:48;8.20;;;1.33;;
26080;SDS011;13991;51.174;4.438;2023-08-21T04:13:17;7.10;;;1.03;;
26080;SDS011;13991;51.174;4.438;2023-08-21T04:15:49;12.47;;;1.60;;
26080;SDS011;13991;51.174;4.438;2023-08-21T04:18:17;12.60;;;1.80;;
26080;SDS011;13991;51.174;4.438;2023-08-21T04:20:43;13.00;;;1.30;;
26080;SDS011;13991;51.174;4.438;2023-08-21T04:26:37;12.10;;;1.63;;
26080;SDS011;13991;51.174;4.438;2023-08-21T04:29:07;13.40;;;1.90;;
26080;SDS011;13991;51.174;4.438;2023-08-21T04:34:45;14.80;;;2.03;;
26080;SDS011;13991;51.174;4.438;2023-08-21T04:37:10;11.77;;;1.40;;
26080;SDS011;13991;51.174;4.438;2023-08-21T04:39:36;14.10;;;1.90;;
26080;SDS011;13991;51.174;4.438;2023-08-21T04:42:02;11.43;;;1.37;;
26080;SDS011;13991;51.174;4.438;2023-08-21T04:44:27;14.47;;;2.07;;
26080;SDS011;13991;51.174;4.438;2023-08-21T04:46:55;10.93;;;1.43;;
26080;SDS011;13991;51.174;4.438;2023-08-21T04:49:21;13.57;;;2.03;;
26080;SDS011;13991;51.174;4.438;2023-08-21T04:51:47;15.23;;;1.90;;
26080;SDS011;13991;51.174;4.438;2023-08-21T04:54:13;8.60;;;1.30;;
26080;SDS011;13991;51.174;4.438;2023-08-21T04:56:40;12.77;;;1.63;;
26080;SDS011;13991;51.174;4.438;2023-08-21T04:59:06;18.53;;;1.93;;
26080;SDS011;13991;51.174;4.438;2023-08-21T05:01:31;17.00;;;1.70;;
26080;SDS011;13991;51.174;4.438;2023-08-21T05:04:04;13.60;;;1.47;;
26080;SDS011;13991;51.174;4.438;2023-08-21T05:06:29;6.70;;;1.17;;
26080;SDS011;13991;51.174;4.438;2023-08-21T05:08:55;19.77;;;1.77;;
26080;SDS011;13991;51.174;4.438;2023-08-21T05:11:24;19.23;;;2.00;;
26080;SDS011;13991;51.174;4.438;2023-08-21T05:17:21;17.13;;;2.30;;
26080;SDS011;13991;51.174;4.438;2023-08-21T05:29:19;9.67;;;1.93;;
26080;SDS011;13991;51.174;4.438;2023-08-21T05:31:45;11.63;;;1.90;;
26080;SDS011;13991;51.174;4.438;2023-08-21T05:34:13;20.97;;;2.43;;
26080;SDS011;13991;51.174;4.438;2023-08-21T05:36:38;16.17;;;2.53;;
26080;SDS011;13991;51.174;4.438;2023-08-21T05:39:05;11.80;;;2.07;;
26080;SDS011;13991;51.174;4.438;2023-08-21T05:41:33;14.90;;;2.27;;
26080;SDS011;13991;51.174;4.438;2023-08-21T05:44:06;18.30;;;2.23;;
26080;SDS011;13991;51.174;4.438;2023-08-21T05:46:31;19.30;;;2.90;;
26080;SDS011;13991;51.174;4.438;2023-08-21T05:48:58;14.47;;;2.23;;
26080;SDS011;13991;51.174;4.438;2023-08-21T05:51:24;16.40;;;2.57;;
26080;SDS011;13991;51.174;4.438;2023-08-21T05:53:50;25.90;;;2.70;;
26080;SDS011;13991;51.174;4.438;2023-08-21T05:56:16;14.97;;;2.40;;
26080;SDS011;13991;51.174;4.438;2023-08-21T05:58:42;14.53;;;2.37;;
26080;SDS011;13991;51.174;4.438;2023-08-21T06:01:10;14.30;;;2.27;;
26080;SDS011;13991;51.174;4.438;2023-08-21T06:03:37;17.43;;;2.90;;
26080;SDS011;13991;51.174;4.438;2023-08-21T06:06:04;25.27;;;3.13;;
26080;SDS011;13991;51.174;4.438;2023-08-21T06:08:30;30.67;;;2.87;;
26080;SDS011;13991;51.174;4.438;2023-08-21T06:10:56;18.37;;;2.67;;
26080;SDS011;13991;51.174;4.438;2023-08-21T06:13:22;22.73;;;3.77;;
26080;SDS011;13991;51.174;4.438;2023-08-21T06:22:14;20.80;;;2.50;;
26080;SDS011;13991;51.174;4.438;2023-08-21T06:28:09;27.83;;;2.77;;
26080;SDS011;13991;51.174;4.438;2023-08-21T06:30:34;19.57;;;2.80;;
26080;SDS011;13991;51.174;4.438;2023-08-21T06:33:00;19.87;;;3.30;;
26080;SDS011;13991;51.174;4.438;2023-08-21T06:35:27;24.87;;;3.03;;
26080;SDS011;13991;51.174;4.438;2023-08-21T06:38:02;35.57;;;3.80;;
26080;SDS011;13991;51.174;4.438;2023-08-21T06:40:28;22.53;;;3.40;;
26080;SDS011;13991;51.174;4.438;2023-08-21T06:43:00;18.20;;;3.13;;
26080;SDS011;13991;51.174;4.438;2023-08-21T06:45:33;22.60;;;3.03;;
26080;SDS011;13991;51.174;4.438;2023-08-21T06:48:00;21.80;;;2.70;;
26080;SDS011;13991;51.174;4.438;2023-08-21T06:50:26;23.90;;;2.67;;
26080;SDS011;13991;51.174;4.438;2023-08-21T06:52:52;27.33;;;3.30;;
26080;SDS011;13991;51.174;4.438;2023-08-21T06:55:21;13.37;;;2.50;;
26080;SDS011;13991;51.174;4.438;2023-08-21T07:08:00;17.43;;;2.93;;
26080;SDS011;13991;51.174;4.438;2023-08-21T07:10:25;12.57;;;2.20;;
26080;SDS011;13991;51.174;4.438;2023-08-21T07:12:53;25.23;;;2.23;;
26080;SDS011;13991;51.174;4.438;2023-08-21T07:15:18;16.27;;;2.53;;
26080;SDS011;13991;51.174;4.438;2023-08-21T07:17:44;14.67;;;1.90;;
26080;SDS011;13991;51.174;4.438;2023-08-21T07:20:11;16.37;;;2.17;;
26080;SDS011;13991;51.174;4.438;2023-08-21T07:28:58;15.70;;;2.30;;
26080;SDS011;13991;51.174;4.438;2023-08-21T07:34:26;14.33;;;2.37;;
26080;SDS011;13991;51.174;4.438;2023-08-21T07:36:57;27.57;;;3.03;;
26080;SDS011;13991;51.174;4.438;2023-08-21T07:39:24;24.90;;;2.27;;
26080;SDS011;13991;51.174;4.438;2023-08-21T07:48:00;23.60;;;2.80;;
26080;SDS011;13991;51.174;4.438;2023-08-21T07:50:27;18.10;;;2.57;;
26080;SDS011;13991;51.174;4.438;2023-08-21T07:52:53;24.20;;;2.23;;
26080;SDS011;13991;51.174;4.438;2023-08-21T07:58:41;19.57;;;2.43;;
26080;SDS011;13991;51.174;4.438;2023-08-21T08:04:19;24.70;;;3.47;;
26080;SDS011;13991;51.174;4.438;2023-08-21T08:06:45;19.07;;;3.20;;
26080;SDS011;13991;51.174;4.438;2023-08-21T08:09:11;22.53;;;4.33;;
26080;SDS011;13991;51.174;4.438;2023-08-21T08:11:43;20.23;;;3.23;;
26080;SDS011;13991;51.174;4.438;2023-08-21T08:27:24;20.60;;;4.20;;
26080;SDS011;13991;51.174;4.438;2023-08-21T08:30:18;21.63;;;5.47;;
26080;SDS011;13991;51.174;4.438;2023-08-21T08:32:52;36.63;;;4.83;;
26080;SDS011;13991;51.174;4.438;2023-08-21T08:35:41;26.20;;;6.37;;
26080;SDS011;13991;51.174;4.438;2023-08-21T08:38:32;41.83;;;7.10;;
26080;SDS011;13991;51.174;4.438;2023-08-21T09:08:36;18.90;;;2.45;;
26080;SDS011;13991;51.174;4.438;2023-08-21T09:11:03;15.18;;;3.15;;
26080;SDS011;13991;51.174;4.438;2023-08-21T09:42:13;14.23;;;2.65;;
26080;SDS011;13991;51.174;4.438;2023-08-21T12:27:59;7.55;;;0.40;;
26080;SDS011;13991;51.174;4.438;2023-08-21T12:37:04;9.23;;;0.35;;
26080;SDS011;13991;51.174;4.438;2023-08-21T12:39:32;0.85;;;0.22;;
26080;SDS011;13991;51.174;4.438;2023-08-21T13:49:10;12.82;;;1.17;;
26080;SDS011;13991;51.174;4.438;2023-08-21T13:51:42;5.53;;;0.88;;
26080;SDS011;13991;51.174;4.438;2023-08-21T14:21:28;3.40;;;0.73;;
26080;SDS011;13991;51.174;4.438;2023-08-21T15:20:15;10.80;;;1.40;;
26080;SDS011;13991;51.174;4.438;2023-08-21T15:22:41;8.18;;;1.23;;
26080;SDS011;13991;51.174;4.438;2023-08-21T17:53:57;14.95;;;3.03;;
26080;SDS011;13991;51.174;4.438;2023-08-21T18:03:21;9.68;;;2.17;;
26080;SDS011;13991;51.174;4.438;2023-08-21T18:39:57;16.63;;;2.53;;
26080;SDS011;13991;51.174;4.438;2023-08-21T18:42:26;17.60;;;2.25;;
26080;SDS011;13991;51.174;4.438;2023-08-21T18:48:41;16.60;;;2.08;;
